Time;durP1;ratioP1;P1;durP2;ratioP2;P2;SDS_P1;SDS_P2;PMS_P1;PMS_P2;Temp;Humidity;BMP_temperature;BMP_pressure;BME280_temperature;BME280_humidity;BME280_pressure;Samples;Min_cycle;Max_cycle;Signal;HPM_P1;HPM_P2
2021/12/15 00:02:11;;;;;;;45.15;20.52;;;;;;;;;;2543174;54;21641;-78
2021/12/15 00:04:38;;;;;;;45.67;19.90;;;;;;;;;;2543173;54;21141;-77
2021/12/15 00:07:06;;;;;;;41.75;18.37;;;;;;;;;;2543184;54;21133;-78
2021/12/15 00:09:33;;;;;;;36.42;18.60;;;;;;;;;;2543142;54;21149;-78
2021/12/15 00:12:03;;;;;;;45.55;19.45;;;;;;;;;;2543243;54;21801;-78
2021/12/15 00:14:33;;;;;;;41.05;18.92;;;;;;;;;;2542919;54;21154;-78
2021/12/15 00:17:00;;;;;;;39.38;19.55;;;;;;;;;;2543306;54;21721;-77
2021/12/15 00:19:27;;;;;;;42.83;19.65;;;;;;;;;;2542984;54;22288;-77
2021/12/15 00:21:55;;;;;;;42.38;20.12;;;;;;;;;;2542954;54;21808;-78
2021/12/15 00:24:22;;;;;;;41.50;19.37;;;;;;;;;;2543241;54;21085;-78
2021/12/15 00:26:49;;;;;;;44.92;21.83;;;;;;;;;;2543207;54;21046;-77
2021/12/15 00:29:17;;;;;;;46.25;19.35;;;;;;;;;;2542842;54;21502;-78
2021/12/15 00:31:46;;;;;;;41.70;19.92;;;;;;;;;;2543185;54;21077;-78
2021/12/15 00:34:13;;;;;;;43.00;19.17;;;;;;;;;;2543051;54;21081;-78
2021/12/15 00:36:43;;;;;;;39.80;19.45;;;;;;;;;;2543229;54;21228;-77
2021/12/15 00:39:12;;;;;;;40.12;19.12;;;;;;;;;;2542856;54;21197;-77
2021/12/15 00:41:39;;;;;;;38.30;19.05;;;;;;;;;;2543161;54;21109;-78
2021/12/15 00:44:07;;;;;;;40.97;19.60;;;;;;;;;;2542822;54;21066;-78
2021/12/15 00:46:35;;;;;;;43.10;19.77;;;;;;;;;;2542834;54;21338;-78
2021/12/15 00:49:02;;;;;;;44.70;20.05;;;;;;;;;;2542994;54;21593;-77
2021/12/15 00:51:29;;;;;;;39.08;19.92;;;;;;;;;;2542977;54;21305;-78
2021/12/15 00:53:56;;;;;;;35.70;18.70;;;;;;;;;;2543093;54;21157;-77
2021/12/15 00:56:23;;;;;;;41.60;19.37;;;;;;;;;;2543352;54;21177;-78
2021/12/15 00:58:50;;;;;;;35.83;17.62;;;;;;;;;;2542981;54;21765;-79
2021/12/15 01:01:18;;;;;;;33.33;16.80;;;;;;;;;;2543029;54;21841;-77
2021/12/15 01:03:45;;;;;;;41.37;17.75;;;;;;;;;;2543132;54;21071;-78
2021/12/15 01:06:16;;;;;;;36.70;18.20;;;;;;;;;;2542994;54;21069;-78
2021/12/15 01:08:46;;;;;;;35.72;17.33;;;;;;;;;;2543143;54;21124;-77
2021/12/15 01:11:20;;;;;;;39.38;18.23;;;;;;;;;;2542429;54;21391;-77
2021/12/15 01:22:11;;;;;;;48.95;20.48;;;;;;;;;;2304867;58;21082;-77
2021/12/15 01:24:39;;;;;;;43.05;19.52;;;;;;;;;;2543156;54;21773;-78
2021/12/15 01:27:06;;;;;;;37.40;18.27;;;;;;;;;;2543072;54;21106;-77
2021/12/15 01:29:33;;;;;;;39.15;18.65;;;;;;;;;;2542756;54;21078;-78
2021/12/15 01:32:00;;;;;;;37.28;18.08;;;;;;;;;;2543128;54;21062;-78
2021/12/15 01:34:28;;;;;;;34.60;17.62;;;;;;;;;;2542728;54;21574;-77
2021/12/15 01:36:57;;;;;;;33.35;17.33;;;;;;;;;;2543120;54;21828;-77
2021/12/15 01:39:24;;;;;;;38.67;19.08;;;;;;;;;;2542942;54;21058;-76
2021/12/15 01:41:54;;;;;;;46.55;20.37;;;;;;;;;;2542868;54;21145;-78
2021/12/15 01:47:07;;;;;;;36.30;17.08;;;;;;;;;;2306815;58;21030;-77
2021/12/15 01:49:37;;;;;;;36.83;17.92;;;;;;;;;;2546424;54;21142;-77
2021/12/15 01:52:05;;;;;;;38.78;18.27;;;;;;;;;;2546091;54;21110;-77
2021/12/15 01:54:33;;;;;;;37.08;17.90;;;;;;;;;;2307867;58;21169;-77
2021/12/15 01:57:01;;;;;;;41.97;19.10;;;;;;;;;;2307819;58;21125;-78
2021/12/15 01:59:29;;;;;;;38.88;17.62;;;;;;;;;;2307347;58;21102;-77
2021/12/15 02:01:56;;;;;;;39.80;19.05;;;;;;;;;;2546540;54;21102;-77
2021/12/15 02:04:23;;;;;;;36.83;19.70;;;;;;;;;;2307666;58;21125;-77
2021/12/15 02:06:50;;;;;;;38.45;18.40;;;;;;;;;;2307717;58;21570;-77
2021/12/15 02:09:29;;;;;;;36.45;18.37;;;;;;;;;;2307550;58;21184;-78
2021/12/15 02:11:56;;;;;;;35.17;17.10;;;;;;;;;;2546512;54;21102;-77
2021/12/15 02:14:23;;;;;;;37.13;17.50;;;;;;;;;;2546056;54;21137;-77
2021/12/15 02:16:51;;;;;;;44.47;20.25;;;;;;;;;;2307688;58;21138;-78
2021/12/15 02:19:18;;;;;;;33.70;16.98;;;;;;;;;;2307301;58;21130;-76
2021/12/15 02:21:45;;;;;;;32.60;16.08;;;;;;;;;;2307922;58;21161;-77
2021/12/15 02:24:12;;;;;;;36.60;17.77;;;;;;;;;;2546426;54;21126;-77
2021/12/15 02:26:45;;;;;;;32.67;16.45;;;;;;;;;;2307731;58;21066;-77
2021/12/15 02:29:17;;;;;;;33.78;17.30;;;;;;;;;;2307552;58;21081;-77
2021/12/15 02:31:56;;;;;;;38.90;18.12;;;;;;;;;;2546377;54;21122;-77
2021/12/15 02:34:43;;;;;;;37.60;16.35;;;;;;;;;;2307710;58;21125;-77
2021/12/15 02:37:17;;;;;;;31.80;14.15;;;;;;;;;;2307556;58;21085;-77
2021/12/15 02:39:46;;;;;;;30.12;13.23;;;;;;;;;;2307759;58;21126;-76
2021/12/15 02:42:13;;;;;;;35.17;17.10;;;;;;;;;;2307597;58;21073;-77
2021/12/15 02:44:43;;;;;;;34.38;17.55;;;;;;;;;;2307711;58;21086;-78
2021/12/15 02:47:11;;;;;;;37.15;18.23;;;;;;;;;;2307760;58;21058;-77
2021/12/15 02:49:38;;;;;;;33.30;17.75;;;;;;;;;;2307617;58;21066;-77
2021/12/15 02:52:06;;;;;;;35.17;17.50;;;;;;;;;;2307932;58;21129;-77
2021/12/15 02:54:33;;;;;;;34.95;16.50;;;;;;;;;;2307389;58;21078;-77
2021/12/15 02:57:05;;;;;;;37.20;18.70;;;;;;;;;;2546122;54;21197;-77
2021/12/15 02:59:42;;;;;;;42.00;19.95;;;;;;;;;;2307845;58;21054;-78
2021/12/15 03:02:19;;;;;;;37.28;18.75;;;;;;;;;;2546528;54;21069;-77
2021/12/15 03:04:51;;;;;;;37.78;18.42;;;;;;;;;;2546760;54;21042;-77
2021/12/15 03:07:29;;;;;;;34.80;18.10;;;;;;;;;;2307491;58;21125;-78
2021/12/15 03:15:35;;;;;;;40.95;17.70;;;;;;;;;;2262823;58;21070;-77
2021/12/15 03:18:08;;;;;;;45.28;19.67;;;;;;;;;;2307548;58;21050;-77
2021/12/15 03:20:36;;;;;;;40.92;18.80;;;;;;;;;;2307674;58;21090;-77
2021/12/15 03:23:05;;;;;;;37.80;18.65;;;;;;;;;;2307917;58;21404;-78
2021/12/15 03:25:32;;;;;;;40.55;19.05;;;;;;;;;;2307807;58;21125;-77
2021/12/15 03:33:42;;;;;;;43.80;18.75;;;;;;;;;;2307579;58;21077;-77
2021/12/15 03:36:22;;;;;;;43.97;18.77;;;;;;;;;;2545846;54;21101;-77
2021/12/15 03:38:49;;;;;;;43.05;19.83;;;;;;;;;;2307806;58;21137;-76
2021/12/15 03:41:16;;;;;;;38.92;18.37;;;;;;;;;;2308182;58;21046;-77
2021/12/15 03:43:43;;;;;;;41.10;20.17;;;;;;;;;;2307374;58;21066;-77
2021/12/15 03:46:15;;;;;;;44.83;20.20;;;;;;;;;;2307427;58;21070;-77
2021/12/15 03:48:43;;;;;;;41.35;19.67;;;;;;;;;;2307738;58;21094;-76
2021/12/15 03:51:12;;;;;;;42.28;20.15;;;;;;;;;;2307943;58;21046;-78
2021/12/15 03:53:39;;;;;;;40.78;19.20;;;;;;;;;;2307718;58;21078;-77
2021/12/15 03:56:08;;;;;;;40.30;19.17;;;;;;;;;;2307844;58;21106;-77
2021/12/15 03:58:35;;;;;;;43.55;20.02;;;;;;;;;;2545877;54;21129;-78
2021/12/15 04:01:05;;;;;;;42.67;20.52;;;;;;;;;;2546151;54;21042;-77
2021/12/15 04:03:34;;;;;;;50.50;20.65;;;;;;;;;;2307710;58;21074;-77
2021/12/15 04:06:03;;;;;;;55.70;23.70;;;;;;;;;;2307683;58;21046;-77
2021/12/15 04:08:31;;;;;;;50.83;22.37;;;;;;;;;;2307631;58;21082;-77
2021/12/15 04:10:59;;;;;;;48.28;22.73;;;;;;;;;;2307594;58;21118;-76
2021/12/15 04:13:26;;;;;;;43.03;20.00;;;;;;;;;;2307200;58;21042;-76
2021/12/15 04:15:56;;;;;;;40.47;17.08;;;;;;;;;;2307775;58;21054;-78
2021/12/15 04:18:24;;;;;;;44.40;20.42;;;;;;;;;;2546307;54;21149;-78
2021/12/15 04:20:51;;;;;;;41.75;19.02;;;;;;;;;;2307463;58;22199;-77
2021/12/15 04:23:19;;;;;;;40.03;18.70;;;;;;;;;;2307821;58;21057;-77
2021/12/15 04:25:47;;;;;;;42.17;18.70;;;;;;;;;;2546191;54;21073;-77
2021/12/15 04:28:16;;;;;;;47.78;20.92;;;;;;;;;;2307700;58;21038;-77
2021/12/15 04:30:45;;;;;;;46.60;19.87;;;;;;;;;;2545779;54;21114;-77
2021/12/15 04:33:16;;;;;;;47.20;20.98;;;;;;;;;;2546353;54;21097;-77
2021/12/15 04:35:43;;;;;;;50.67;21.37;;;;;;;;;;2307344;58;21121;-76
2021/12/15 04:38:11;;;;;;;48.87;20.85;;;;;;;;;;2307398;58;21090;-77
2021/12/15 04:40:38;;;;;;;50.42;20.23;;;;;;;;;;2307213;58;21397;-76
2021/12/15 04:43:05;;;;;;;46.97;20.05;;;;;;;;;;2321347;53;21113;-78
2021/12/15 04:45:32;;;;;;;52.75;21.70;;;;;;;;;;2282572;55;21065;-77
2021/12/15 04:48:00;;;;;;;45.00;19.67;;;;;;;;;;2285185;55;21236;-77
2021/12/15 04:50:29;;;;;;;51.37;21.42;;;;;;;;;;2281789;59;21613;-77
2021/12/15 04:52:59;;;;;;;54.80;22.33;;;;;;;;;;2281910;59;21121;-78
2021/12/15 04:55:28;;;;;;;59.78;24.27;;;;;;;;;;2281013;59;21126;-78
2021/12/15 04:57:56;;;;;;;44.13;19.55;;;;;;;;;;2280678;59;21098;-79
2021/12/15 05:00:26;;;;;;;61.72;24.37;;;;;;;;;;2294941;55;21086;-78
2021/12/15 05:02:53;;;;;;;48.33;20.65;;;;;;;;;;2280630;59;21057;-78
2021/12/15 05:05:20;;;;;;;61.90;24.95;;;;;;;;;;2280503;59;21102;-77
2021/12/15 05:07:47;;;;;;;51.58;22.23;;;;;;;;;;2280401;59;21121;-78
2021/12/15 05:10:14;;;;;;;55.60;22.02;;;;;;;;;;2279561;59;21614;-77
2021/12/15 05:12:41;;;;;;;55.53;21.60;;;;;;;;;;2292181;55;21173;-77
2021/12/15 05:15:09;;;;;;;55.65;19.90;;;;;;;;;;2279221;59;21070;-76
2021/12/15 05:17:36;;;;;;;54.20;22.02;;;;;;;;;;2280132;59;21062;-77
2021/12/15 05:20:05;;;;;;;58.35;24.10;;;;;;;;;;2279984;59;21058;-78
2021/12/15 05:22:33;;;;;;;53.63;21.42;;;;;;;;;;2280106;59;21117;-77
2021/12/15 05:25:00;;;;;;;62.35;24.10;;;;;;;;;;2280476;56;21113;-77
2021/12/15 05:27:27;;;;;;;56.67;22.05;;;;;;;;;;2297229;55;21070;-77
2021/12/15 05:29:57;;;;;;;55.08;21.55;;;;;;;;;;2280009;59;21062;-78
2021/12/15 05:32:24;;;;;;;54.55;22.15;;;;;;;;;;2279991;59;21070;-77
2021/12/15 05:34:53;;;;;;;60.10;21.25;;;;;;;;;;2280201;59;21054;-75
2021/12/15 05:37:22;;;;;;;51.97;19.12;;;;;;;;;;2279799;59;21074;-77
2021/12/15 05:39:50;;;;;;;54.47;18.92;;;;;;;;;;2291846;55;21042;-77
2021/12/15 05:42:19;;;;;;;53.25;20.67;;;;;;;;;;2280397;59;21074;-77
2021/12/15 05:44:46;;;;;;;49.58;20.55;;;;;;;;;;2280132;59;21085;-77
2021/12/15 05:47:13;;;;;;;57.65;22.13;;;;;;;;;;2280703;59;21061;-77
2021/12/15 05:49:40;;;;;;;57.17;19.17;;;;;;;;;;2280089;59;21161;-77
2021/12/15 05:52:08;;;;;;;58.85;22.17;;;;;;;;;;2280703;59;21132;-77
2021/12/15 05:54:35;;;;;;;45.40;18.80;;;;;;;;;;2280139;59;21563;-77
2021/12/15 05:57:02;;;;;;;47.92;18.30;;;;;;;;;;2280590;59;21069;-78
2021/12/15 05:59:29;;;;;;;57.58;21.42;;;;;;;;;;2280876;59;21089;-79
2021/12/15 06:01:56;;;;;;;55.40;20.70;;;;;;;;;;2280481;59;21066;-77
2021/12/15 06:04:23;;;;;;;52.97;20.83;;;;;;;;;;2280425;59;21137;-77
2021/12/15 06:06:50;;;;;;;55.40;21.02;;;;;;;;;;2280651;59;21069;-77
2021/12/15 06:09:17;;;;;;;52.83;19.40;;;;;;;;;;2280504;59;21070;-81
2021/12/15 06:11:48;;;;;;;57.00;19.58;;;;;;;;;;2285516;55;21592;-76
2021/12/15 06:14:22;;;;;;;48.28;19.83;;;;;;;;;;2280997;59;21150;-82
2021/12/15 06:16:50;;;;;;;57.42;21.02;;;;;;;;;;2280925;59;21050;-83
2021/12/15 06:19:17;;;;;;;55.58;21.90;;;;;;;;;;2281080;59;21070;-77
2021/12/15 06:21:44;;;;;;;50.60;19.67;;;;;;;;;;2280385;59;21558;-77
2021/12/15 06:24:11;;;;;;;57.62;21.77;;;;;;;;;;2280754;59;21134;-77
2021/12/15 06:26:38;;;;;;;72.45;25.12;;;;;;;;;;2280625;59;21050;-78
2021/12/15 06:29:05;;;;;;;58.33;21.92;;;;;;;;;;2280615;59;21127;-78
2021/12/15 06:31:32;;;;;;;58.20;21.90;;;;;;;;;;2280739;59;21066;-79
2021/12/15 06:33:59;;;;;;;63.17;23.60;;;;;;;;;;2475848;55;21141;-78
2021/12/15 06:36:28;;;;;;;63.53;23.55;;;;;;;;;;2280906;59;21104;-78
2021/12/15 06:38:55;;;;;;;62.30;22.75;;;;;;;;;;2280879;58;21073;-78
2021/12/15 06:41:22;;;;;;;53.70;21.73;;;;;;;;;;2352159;55;21113;-78
2021/12/15 06:43:54;;;;;;;55.10;22.20;;;;;;;;;;2280460;59;21066;-77
2021/12/15 06:46:44;;;;;;;58.67;22.27;;;;;;;;;;2280791;59;21122;-77
2021/12/15 06:58:10;;;;;;;65.95;23.42;;;;;;;;;;2280838;55;21336;-78
2021/12/15 07:00:39;;;;;;;67.03;23.75;;;;;;;;;;2303549;55;21119;-79
2021/12/15 07:03:06;;;;;;;70.12;25.45;;;;;;;;;;2280643;59;21145;-78
2021/12/15 07:05:34;;;;;;;62.50;22.08;;;;;;;;;;2378290;55;21657;-78
2021/12/15 07:08:02;;;;;;;70.03;24.98;;;;;;;;;;2280673;59;21062;-78
2021/12/15 07:10:30;;;;;;;65.95;25.00;;;;;;;;;;2280390;59;21122;-78
2021/12/15 07:12:58;;;;;;;79.07;27.48;;;;;;;;;;2280127;59;21181;-78
2021/12/15 07:15:25;;;;;;;68.45;24.60;;;;;;;;;;2280320;59;21074;-78
2021/12/15 07:18:01;;;;;;;64.97;26.02;;;;;;;;;;2284598;55;21062;-78
2021/12/15 07:20:35;;;;;;;68.62;25.35;;;;;;;;;;2280646;59;21058;-78
2021/12/15 07:23:04;;;;;;;56.65;21.87;;;;;;;;;;2280707;59;21102;-77
2021/12/15 07:25:31;;;;;;;67.25;24.40;;;;;;;;;;2280624;59;21578;-78
2021/12/15 07:27:59;;;;;;;67.10;25.35;;;;;;;;;;2280500;59;21072;-78
2021/12/15 07:30:26;;;;;;;68.65;24.75;;;;;;;;;;2373522;55;21488;-77
2021/12/15 07:32:53;;;;;;;65.70;24.55;;;;;;;;;;2280605;59;21324;-78
2021/12/15 07:35:21;;;;;;;69.70;26.05;;;;;;;;;;2316098;55;21094;-78
2021/12/15 07:37:48;;;;;;;61.03;23.17;;;;;;;;;;2280104;59;21665;-78
2021/12/15 07:40:20;;;;;;;63.70;26.48;;;;;;;;;;2280578;59;21062;-78
2021/12/15 07:42:57;;;;;;;60.72;25.45;;;;;;;;;;2280743;59;21081;-79
2021/12/15 07:45:24;;;;;;;62.10;24.30;;;;;;;;;;2280691;59;21082;-79
2021/12/15 07:47:52;;;;;;;74.12;26.75;;;;;;;;;;2359799;55;21086;-78
2021/12/15 07:50:19;;;;;;;65.90;25.40;;;;;;;;;;2280367;59;21062;-78
2021/12/15 07:52:46;;;;;;;66.07;26.42;;;;;;;;;;2280606;59;21134;-78
2021/12/15 07:55:13;;;;;;;65.32;25.00;;;;;;;;;;2280533;59;21058;-78
2021/12/15 07:57:40;;;;;;;53.87;22.80;;;;;;;;;;2291062;55;21582;-78
2021/12/15 08:00:09;;;;;;;58.75;23.67;;;;;;;;;;2380960;55;21086;-79
2021/12/15 08:02:36;;;;;;;70.97;26.25;;;;;;;;;;2280602;59;21070;-78
2021/12/15 08:05:03;;;;;;;54.30;23.10;;;;;;;;;;2280617;59;21054;-78
2021/12/15 08:07:30;;;;;;;51.97;22.95;;;;;;;;;;2280659;59;21098;-78
2021/12/15 08:09:58;;;;;;;61.97;25.33;;;;;;;;;;2280582;59;21058;-78
2021/12/15 08:12:27;;;;;;;68.25;26.40;;;;;;;;;;2280836;59;21086;-78
2021/12/15 08:14:54;;;;;;;62.38;24.45;;;;;;;;;;2280913;59;21055;-78
2021/12/15 08:17:21;;;;;;;62.10;26.27;;;;;;;;;;2280887;59;21146;-78
2021/12/15 08:19:48;;;;;;;53.10;24.60;;;;;;;;;;2286352;55;21655;-78
2021/12/15 08:22:15;;;;;;;58.87;25.48;;;;;;;;;;2280925;59;21513;-77
2021/12/15 08:24:43;;;;;;;52.90;22.70;;;;;;;;;;2285951;55;21157;-76
2021/12/15 08:27:09;;;;;;;54.75;24.50;;;;;;;;;;2280986;59;21562;-77
2021/12/15 08:29:36;;;;;;;46.55;20.92;;;;;;;;;;2280796;59;21225;-79
2021/12/15 08:32:04;;;;;;;45.58;21.98;;;;;;;;;;2280687;59;21054;-78
2021/12/15 08:34:31;;;;;;;54.17;23.73;;;;;;;;;;2280631;59;21708;-78
2021/12/15 08:36:59;;;;;;;55.10;23.83;;;;;;;;;;2280702;59;21714;-78
2021/12/15 08:39:26;;;;;;;52.10;22.80;;;;;;;;;;2319036;55;21136;-78
2021/12/15 08:41:53;;;;;;;52.47;23.95;;;;;;;;;;2360234;55;21146;-79
2021/12/15 08:46:55;;;;;;;53.90;26.48;;;;;;;;;;2344466;56;27893;-76
2021/12/15 08:49:23;;;;;;;47.33;20.67;;;;;;;;;;2375106;56;21042;-75
2021/12/15 08:51:50;;;;;;;51.50;22.75;;;;;;;;;;2374724;56;21047;-74
2021/12/15 08:54:18;;;;;;;38.90;18.75;;;;;;;;;;2503501;52;21038;-74
2021/12/15 08:56:46;;;;;;;46.47;22.55;;;;;;;;;;2375149;56;21059;-74
2021/12/15 08:59:13;;;;;;;49.80;22.27;;;;;;;;;;2628630;52;21617;-75
2021/12/15 09:01:41;;;;;;;52.03;21.65;;;;;;;;;;2375268;56;21573;-75
2021/12/15 09:04:08;;;;;;;50.15;24.25;;;;;;;;;;2374930;56;21102;-76
2021/12/15 09:06:35;;;;;;;44.50;21.70;;;;;;;;;;2375255;56;21092;-75
2021/12/15 09:09:03;;;;;;;42.28;20.15;;;;;;;;;;2373605;56;21121;-76
2021/12/15 09:11:30;;;;;;;40.90;20.10;;;;;;;;;;2374573;56;21525;-76
2021/12/15 09:13:59;;;;;;;40.75;19.80;;;;;;;;;;2373982;56;21031;-76
2021/12/15 09:16:27;;;;;;;40.40;19.73;;;;;;;;;;2373700;56;21692;-76
2021/12/15 09:18:54;;;;;;;46.33;21.75;;;;;;;;;;2374829;56;21051;-75
2021/12/15 09:21:23;;;;;;;42.10;20.65;;;;;;;;;;2374190;56;21059;-75
2021/12/15 09:23:50;;;;;;;44.17;22.08;;;;;;;;;;2375058;56;21046;-76
2021/12/15 09:26:17;;;;;;;47.22;23.08;;;;;;;;;;2375102;56;21094;-75
2021/12/15 09:28:44;;;;;;;55.38;23.67;;;;;;;;;;2375169;56;21043;-76
2021/12/15 09:31:13;;;;;;;46.05;21.30;;;;;;;;;;2375203;56;21601;-76
2021/12/15 09:33:43;;;;;;;35.80;18.08;;;;;;;;;;2374366;56;21130;-76
2021/12/15 09:36:12;;;;;;;43.15;20.88;;;;;;;;;;2374181;56;21050;-80
2021/12/15 09:38:40;;;;;;;44.40;21.50;;;;;;;;;;2376211;56;21138;-82
2021/12/15 09:41:08;;;;;;;47.75;22.42;;;;;;;;;;2375456;56;21094;-76
2021/12/15 09:43:36;;;;;;;48.95;23.08;;;;;;;;;;2375065;56;21110;-76
2021/12/15 09:46:10;;;;;;;49.55;22.27;;;;;;;;;;2378391;52;21031;-76
2021/12/15 09:57:25;;;;;;;49.20;23.38;;;;;;;;;;2374515;52;21572;-76
2021/12/15 10:02:55;;;;;;;46.88;22.27;;;;;;;;;;2312229;55;21118;-74
2021/12/15 10:05:41;;;;;;;44.80;21.77;;;;;;;;;;2373988;56;21348;-76
2021/12/15 10:19:22;;;;;;;36.65;18.15;;;;;;;;;;2375156;52;21046;-76
2021/12/15 10:22:04;;;;;;;40.00;19.20;;;;;;;;;;2375303;56;21040;-74
2021/12/15 10:24:34;;;;;;;41.78;21.15;;;;;;;;;;2375263;56;21139;-76
2021/12/15 10:27:03;;;;;;;41.50;19.52;;;;;;;;;;2375219;56;21032;-76
2021/12/15 10:29:30;;;;;;;45.15;20.30;;;;;;;;;;2523103;52;21582;-76
2021/12/15 10:31:59;;;;;;;39.65;20.37;;;;;;;;;;2375449;56;21032;-76
2021/12/15 10:34:26;;;;;;;44.70;22.05;;;;;;;;;;2375347;56;21067;-75
2021/12/15 10:36:53;;;;;;;43.35;20.45;;;;;;;;;;2375386;56;21091;-76
2021/12/15 10:39:22;;;;;;;49.58;22.33;;;;;;;;;;2374788;56;21115;-77
2021/12/15 10:41:52;;;;;;;43.97;20.70;;;;;;;;;;2375219;56;21055;-76
2021/12/15 10:44:23;;;;;;;44.72;19.73;;;;;;;;;;2428174;53;70486;-80
2021/12/15 10:46:51;;;;;;;48.63;22.85;;;;;;;;;;2529689;55;21543;-78
2021/12/15 10:49:20;;;;;;;49.53;24.23;;;;;;;;;;2293350;58;21059;-78
2021/12/15 10:51:48;;;;;;;51.33;23.08;;;;;;;;;;2293746;58;21063;-78
2021/12/15 10:54:16;;;;;;;45.72;21.70;;;;;;;;;;2293326;58;21067;-78
2021/12/15 10:56:50;;;;;;;45.70;21.37;;;;;;;;;;2292703;58;21063;-77
2021/12/15 10:59:16;;;;;;;;;;;;;;;;;;2531396;55;21397;-77
2021/12/15 11:01:49;;;;;;;43.15;21.05;;;;;;;;;;2292446;58;20056;-77
2021/12/15 11:04:22;;;;;;;44.03;21.08;;;;;;;;;;2293028;58;21131;-78
2021/12/15 11:07:01;;;;;;;47.25;24.17;;;;;;;;;;2293167;58;21104;-80
2021/12/15 11:09:32;;;;;;;47.20;22.15;;;;;;;;;;2294544;58;21083;-79
2021/12/15 11:12:00;;;;;;;54.30;23.05;;;;;;;;;;2295519;58;21087;-80
2021/12/15 11:14:29;;;;;;;41.83;20.48;;;;;;;;;;2529432;55;21158;-80
2021/12/15 11:17:04;;;;;;;45.10;20.58;;;;;;;;;;2294389;58;21154;-80
2021/12/15 11:19:45;;;;;;;48.30;22.40;;;;;;;;;;2295226;58;21122;-80
2021/12/15 11:22:29;;;;;;;50.05;23.83;;;;;;;;;;2292700;58;21611;-78
2021/12/15 11:24:56;;;;;;;48.95;22.15;;;;;;;;;;2526536;55;21119;-78
2021/12/15 11:27:23;;;;;;;48.90;21.05;;;;;;;;;;2291738;58;21146;-78
2021/12/15 11:29:50;;;;;;;47.22;21.02;;;;;;;;;;2291528;58;21111;-77
2021/12/15 11:32:37;;;;;;;54.70;24.25;;;;;;;;;;2526768;55;21598;-78
2021/12/15 11:35:05;;;;;;;47.28;19.85;;;;;;;;;;2291266;58;21126;-78
2021/12/15 11:37:50;;;;;;;48.85;23.38;;;;;;;;;;2291643;58;21139;-80
2021/12/15 11:40:22;;;;;;;48.63;22.52;;;;;;;;;;2527319;55;21067;-78
2021/12/15 11:42:49;;;;;;;46.28;21.62;;;;;;;;;;2527382;55;21104;-77
2021/12/15 11:45:18;;;;;;;49.30;23.15;;;;;;;;;;2526444;55;21194;-77
2021/12/15 11:47:45;;;;;;;47.42;22.15;;;;;;;;;;2291691;58;21130;-77
2021/12/15 11:50:13;;;;;;;52.30;25.10;;;;;;;;;;2291107;58;21642;-77
2021/12/15 11:52:42;;;;;;;49.40;23.15;;;;;;;;;;2291079;58;21122;-77
2021/12/15 11:55:21;;;;;;;56.75;26.35;;;;;;;;;;2291345;58;21102;-78
2021/12/15 11:57:48;;;;;;;48.72;22.52;;;;;;;;;;2526665;55;21543;-78
2021/12/15 12:00:17;;;;;;;51.00;24.85;;;;;;;;;;2291500;58;21095;-78
2021/12/15 12:02:47;;;;;;;51.00;22.80;;;;;;;;;;2290345;58;21067;-78
2021/12/15 12:05:15;;;;;;;46.22;22.00;;;;;;;;;;2291189;58;21130;-78
2021/12/15 12:07:46;;;;;;;43.75;21.27;;;;;;;;;;2291128;58;21051;-77
2021/12/15 12:10:19;;;;;;;50.53;22.95;;;;;;;;;;2290715;58;21181;-78
2021/12/15 12:12:51;;;;;;;49.35;23.17;;;;;;;;;;2525859;55;21074;-77
2021/12/15 12:15:20;;;;;;;46.17;23.10;;;;;;;;;;2525890;55;21071;-78
2021/12/15 12:17:48;;;;;;;47.15;22.17;;;;;;;;;;2525640;55;21095;-78
2021/12/15 12:20:17;;;;;;;48.17;23.52;;;;;;;;;;2290539;58;21146;-77
2021/12/15 12:22:45;;;;;;;52.20;24.52;;;;;;;;;;2291365;58;21047;-77
2021/12/15 12:25:14;;;;;;;49.65;23.30;;;;;;;;;;2525767;55;21055;-77
2021/12/15 12:27:42;;;;;;;50.90;24.25;;;;;;;;;;2290873;58;21071;-76
2021/12/15 12:30:11;;;;;;;41.08;20.65;;;;;;;;;;2525889;55;21083;-78
2021/12/15 12:32:38;;;;;;;46.22;21.45;;;;;;;;;;2291200;58;21142;-77
2021/12/15 12:35:07;;;;;;;56.78;24.73;;;;;;;;;;2290377;58;21581;-78
2021/12/15 12:37:34;;;;;;;51.88;24.17;;;;;;;;;;2291454;58;21044;-78
2021/12/15 12:40:08;;;;;;;48.55;24.58;;;;;;;;;;2290676;58;21218;-77
2021/12/15 12:42:37;;;;;;;52.67;24.48;;;;;;;;;;2290655;58;21075;-77
2021/12/15 12:45:12;;;;;;;47.38;23.35;;;;;;;;;;2290730;58;21139;-77
2021/12/15 12:47:46;;;;;;;52.20;23.50;;;;;;;;;;2526121;55;21651;-77
2021/12/15 12:50:39;;;;;;;50.08;22.42;;;;;;;;;;2290194;58;21181;-78
2021/12/15 13:01:38;;;;;;;44.72;20.98;;;;;;;;;;2290778;58;21062;-77
2021/12/15 13:04:10;;;;;;;48.95;23.62;;;;;;;;;;2525685;55;21436;-77
2021/12/15 13:06:42;;;;;;;49.22;21.67;;;;;;;;;;2290986;58;21130;-78
2021/12/15 13:09:10;;;;;;;57.53;26.75;;;;;;;;;;2525679;55;21214;-78
2021/12/15 13:11:39;;;;;;;45.05;22.15;;;;;;;;;;2290547;58;21051;-78
2021/12/15 13:14:08;;;;;;;45.25;20.60;;;;;;;;;;2527303;55;21131;-77
2021/12/15 13:16:41;;;;;;;50.55;22.65;;;;;;;;;;2524989;55;21083;-78
2021/12/15 13:19:17;;;;;;;43.27;21.37;;;;;;;;;;2290672;58;21134;-78
2021/12/15 13:21:49;;;;;;;48.67;20.83;;;;;;;;;;2289845;58;21059;-77
2021/12/15 13:28:41;;;;;;;49.92;24.35;;;;;;;;;;2525833;55;21082;-77
2021/12/15 13:31:11;;;;;;;46.78;21.12;;;;;;;;;;2291082;58;21071;-78
2021/12/15 13:33:48;;;;;;;42.72;20.40;;;;;;;;;;2290751;58;21086;-77
2021/12/15 13:36:17;;;;;;;46.40;21.75;;;;;;;;;;2291131;58;21146;-78
2021/12/15 13:38:45;;;;;;;42.58;20.58;;;;;;;;;;2290837;58;21147;-76
2021/12/15 13:41:22;;;;;;;42.30;20.23;;;;;;;;;;2525828;55;21047;-77
2021/12/15 13:43:54;;;;;;;44.28;21.08;;;;;;;;;;2290974;58;21155;-78
2021/12/15 13:46:30;;;;;;;34.88;17.42;;;;;;;;;;2291188;58;21107;-78
2021/12/15 13:49:03;;;;;;;39.88;18.48;;;;;;;;;;2290733;58;21551;-78
2021/12/15 13:51:52;;;;;;;42.45;22.27;;;;;;;;;;2291246;58;21150;-78
2021/12/15 13:54:24;;;;;;;41.25;20.23;;;;;;;;;;2248023;58;21047;-78
2021/12/15 13:56:52;;;;;;;50.33;29.85;;;;;;;;;;2291219;58;21063;-77
2021/12/15 13:59:28;;;;;;;48.17;34.85;;;;;;;;;;2525493;55;21150;-77
2021/12/15 14:02:10;;;;;;;41.67;19.87;;;;;;;;;;2291593;58;21119;-78
2021/12/15 14:04:41;;;;;;;39.33;20.90;;;;;;;;;;2526848;55;21079;-79
2021/12/15 14:07:27;;;;;;;34.28;16.90;;;;;;;;;;2526399;55;21078;-78
2021/12/15 14:09:54;;;;;;;30.52;17.52;;;;;;;;;;2526062;54;21321;-78
2021/12/15 14:12:40;;;;;;;33.75;17.75;;;;;;;;;;2290674;58;21337;-77
2021/12/15 14:15:07;;;;;;;35.33;18.25;;;;;;;;;;2291300;58;21138;-78
2021/12/15 14:17:34;;;;;;;41.97;21.10;;;;;;;;;;2291081;58;21650;-78
2021/12/15 14:20:01;;;;;;;38.92;19.55;;;;;;;;;;2526368;55;21035;-77
2021/12/15 14:22:28;;;;;;;42.83;19.23;;;;;;;;;;2291148;58;21134;-78
2021/12/15 14:25:00;;;;;;;34.78;17.83;;;;;;;;;;2291118;58;21067;-78
2021/12/15 14:27:27;;;;;;;35.88;18.60;;;;;;;;;;2526384;55;21110;-78
2021/12/15 14:29:54;;;;;;;39.33;19.08;;;;;;;;;;2290555;58;21067;-78
2021/12/15 14:32:25;;;;;;;35.22;18.12;;;;;;;;;;2291077;58;21664;-78
2021/12/15 14:34:53;;;;;;;38.17;18.48;;;;;;;;;;2291131;58;21086;-78
2021/12/15 14:37:21;;;;;;;35.03;17.98;;;;;;;;;;2526302;55;21066;-78
2021/12/15 14:39:49;;;;;;;39.45;18.50;;;;;;;;;;2526158;55;21055;-78
2021/12/15 14:42:17;;;;;;;37.13;18.23;;;;;;;;;;2291321;58;21063;-78
2021/12/15 14:44:46;;;;;;;38.75;20.80;;;;;;;;;;2526232;55;21031;-78
2021/12/15 14:47:15;;;;;;;67.12;33.05;;;;;;;;;;2290522;58;21325;-78
2021/12/15 14:49:43;;;;;;;45.80;23.25;;;;;;;;;;2291041;58;21067;-77
2021/12/15 14:52:11;;;;;;;35.42;18.65;;;;;;;;;;2290976;58;21067;-79
2021/12/15 14:54:39;;;;;;;40.10;18.45;;;;;;;;;;2291233;58;21070;-78
2021/12/15 14:57:08;;;;;;;38.45;18.73;;;;;;;;;;2526370;55;21119;-78
2021/12/15 14:59:36;;;;;;;37.00;18.02;;;;;;;;;;2526326;55;21051;-78
2021/12/15 15:02:06;;;;;;;31.35;16.37;;;;;;;;;;2290679;58;21054;-78
2021/12/15 15:04:34;;;;;;;36.15;19.00;;;;;;;;;;2291214;58;21125;-78
2021/12/15 15:07:03;;;;;;;35.17;18.65;;;;;;;;;;2291324;58;21059;-78
2021/12/15 15:09:33;;;;;;;36.45;17.80;;;;;;;;;;2290884;58;21170;-78
2021/12/15 15:12:02;;;;;;;31.48;16.60;;;;;;;;;;2525598;55;21052;-78
2021/12/15 15:14:31;;;;;;;36.03;16.87;;;;;;;;;;2526242;55;21138;-78
2021/12/15 15:16:58;;;;;;;37.67;17.10;;;;;;;;;;2290451;58;21103;-77
2021/12/15 15:19:26;;;;;;;35.70;18.65;;;;;;;;;;2290785;58;21118;-77
2021/12/15 15:21:55;;;;;;;38.15;17.58;;;;;;;;;;2526108;55;21607;-78
2021/12/15 15:24:29;;;;;;;38.05;18.92;;;;;;;;;;2526426;54;21134;-78
2021/12/15 15:26:58;;;;;;;34.03;16.90;;;;;;;;;;2291341;58;21082;-78
2021/12/15 15:29:33;;;;;;;33.10;16.40;;;;;;;;;;2526149;55;21044;-76
2021/12/15 15:32:06;;;;;;;30.58;15.30;;;;;;;;;;2525954;55;21119;-78
2021/12/15 15:34:33;;;;;;;28.52;14.60;;;;;;;;;;2291289;58;21114;-78
2021/12/15 15:37:09;;;;;;;34.83;17.23;;;;;;;;;;2291647;58;21051;-78
2021/12/15 15:39:36;;;;;;;129.60;41.90;;;;;;;;;;2291005;58;21099;-78